createdAt,value
2022-08-17T00:01:35.765Z,20.14
2022-08-17T00:04:18.623Z,20.34
2022-08-17T00:06:45.925Z,20.36
2022-08-17T00:09:18.851Z,20.46
2022-08-17T00:12:35.081Z,20.44
2022-08-17T00:14:36.462Z,20.35
2022-08-17T00:17:05.742Z,20.34
2022-08-17T00:19:32.934Z,20.30
2022-08-17T00:22:33.564Z,20.38
2022-08-17T00:24:48.229Z,20.24
2022-08-17T00:27:15.357Z,20.03
2022-08-17T00:29:42.616Z,19.75
2022-08-17T00:33:12.188Z,19.76
2022-08-17T00:34:59.393Z,19.73
2022-08-17T00:37:27.066Z,19.66
2022-08-17T00:39:54.367Z,19.40
2022-08-17T00:42:21.662Z,19.33
2022-08-17T00:44:49.248Z,19.44
2022-08-17T00:47:17.760Z,19.44
2022-08-17T00:49:44.983Z,19.51
2022-08-17T00:52:16.341Z,19.51
2022-08-17T00:54:47.124Z,19.51
2022-08-17T00:57:18.293Z,19.54
2022-08-17T00:59:51.145Z,19.65
2022-08-17T01:02:42.362Z,19.71
2022-08-17T01:05:15.345Z,19.77
2022-08-17T01:07:43.540Z,19.49
2022-08-17T01:10:58.996Z,19.31
2022-08-17T01:13:01.505Z,19.26
2022-08-17T01:15:30.030Z,19.31
2022-08-17T01:17:58.742Z,19.24
2022-08-17T01:20:26.509Z,19.18
2022-08-17T01:22:55.182Z,19.26
2022-08-17T01:25:22.935Z,19.14
2022-08-17T01:27:50.473Z,19.19
2022-08-17T01:30:58.777Z,19.30
2022-08-17T01:33:05.617Z,19.31
2022-08-17T01:35:32.868Z,19.45
2022-08-17T01:38:01.662Z,19.70
2022-08-17T01:40:33.738Z,19.71
2022-08-17T01:43:05.991Z,19.71
2022-08-17T01:45:42.782Z,19.63
2022-08-17T01:48:11.039Z,19.48
2022-08-17T01:50:41.166Z,19.40
2022-08-17T01:53:13.637Z,19.37
2022-08-17T01:55:45.429Z,19.45
2022-08-17T01:58:15.037Z,19.56
2022-08-17T02:00:59.654Z,19.66
2022-08-17T02:03:29.814Z,19.62
2022-08-17T02:05:57.487Z,19.47
2022-08-17T02:08:37.123Z,19.40
2022-08-17T02:11:12.266Z,19.38
2022-08-17T02:13:39.509Z,19.31
2022-08-17T02:16:06.701Z,19.27
2022-08-17T02:18:34.353Z,19.24
2022-08-17T02:21:01.616Z,19.18
2022-08-17T02:23:34.567Z,19.14
2022-08-17T02:26:02.422Z,19.24
2022-08-17T02:28:29.970Z,19.28
2022-08-17T02:31:00.886Z,19.28
2022-08-17T02:33:42.427Z,19.41
2022-08-17T02:36:13.007Z,19.41
2022-08-17T02:38:43.706Z,18.97
2022-08-17T02:41:10.902Z,19.05
2022-08-17T02:43:38.216Z,18.96
2022-08-17T02:46:05.813Z,19.19
2022-08-17T02:48:33.154Z,19.41
2022-08-17T02:51:01.044Z,19.30
2022-08-17T02:53:33.657Z,19.27
2022-08-17T02:56:05.038Z,18.95
2022-08-17T02:58:35.313Z,18.98
2022-08-17T03:01:04.871Z,18.94
2022-08-17T03:03:32.254Z,18.84
2022-08-17T03:05:59.911Z,18.90
2022-08-17T03:08:27.461Z,18.94
2022-08-17T03:10:54.700Z,19.00
2022-08-17T03:13:23.747Z,18.93
2022-08-17T03:15:51.508Z,18.85
2022-08-17T03:18:24.455Z,18.62
2022-08-17T03:20:53.506Z,18.58
2022-08-17T03:23:23.837Z,18.55
2022-08-17T03:25:53.825Z,18.48
2022-08-17T03:28:23.543Z,18.69
2022-08-17T03:30:50.850Z,18.83
2022-08-17T03:33:18.860Z,18.84
2022-08-17T03:35:47.035Z,18.53
2022-08-17T03:38:15.229Z,18.41
2022-08-17T03:40:58.481Z,18.62
2022-08-17T03:43:31.445Z,18.66
2022-08-17T03:45:59.330Z,18.48
2022-08-17T03:48:26.625Z,18.38
2022-08-17T03:50:54.264Z,18.52
2022-08-17T03:53:21.498Z,18.64
2022-08-17T03:55:48.710Z,18.69
2022-08-17T03:58:16.171Z,18.49
2022-08-17T04:00:44.783Z,18.62
2022-08-17T04:03:12.234Z,18.59
2022-08-17T04:05:39.862Z,18.56
2022-08-17T04:08:07.641Z,18.55
2022-08-17T04:10:38.448Z,18.41
2022-08-17T04:13:13.141Z,18.41
2022-08-17T04:15:40.449Z,18.56
2022-08-17T04:18:11.100Z,18.77
2022-08-17T04:20:38.697Z,18.94
2022-08-17T04:23:10.128Z,18.93
2022-08-17T04:25:39.542Z,19.05
2022-08-17T04:28:07.608Z,19.05
2022-08-17T04:30:44.379Z,19.05
2022-08-17T04:33:15.358Z,19.29
2022-08-17T04:35:44.837Z,19.58
2022-08-17T04:38:14.256Z,19.85
2022-08-17T04:40:42.461Z,20.04
2022-08-17T04:43:12.344Z,19.97
2022-08-17T04:45:41.053Z,19.97
2022-08-17T04:48:27.897Z,20.30
2022-08-17T04:51:05.693Z,20.57
2022-08-17T04:53:32.979Z,20.69
2022-08-17T04:56:00.266Z,20.96
2022-08-17T04:58:28.068Z,21.19
2022-08-17T05:00:55.308Z,21.32
2022-08-17T05:03:24.066Z,21.48
2022-08-17T05:05:51.896Z,21.56
2022-08-17T05:08:20.948Z,21.67
2022-08-17T05:10:48.984Z,21.92
2022-08-17T05:13:19.259Z,22.12
2022-08-17T05:15:49.290Z,22.26
2022-08-17T05:18:17.375Z,22.35
2022-08-17T05:20:46.491Z,22.49
2022-08-17T05:23:16.537Z,22.71
2022-08-17T05:25:47.586Z,22.90
2022-08-17T05:28:16.425Z,23.01
2022-08-17T05:30:44.865Z,23.23
2022-08-17T05:33:19.066Z,23.47
2022-08-17T05:35:52.697Z,23.70
2022-08-17T05:38:21.823Z,23.87
2022-08-17T05:40:49.218Z,23.98
2022-08-17T05:43:19.470Z,24.27
2022-08-17T05:45:56.905Z,24.26
2022-08-17T05:48:36.768Z,24.49
2022-08-17T05:51:47.184Z,24.55
2022-08-17T05:54:27.122Z,24.71
2022-08-17T05:57:24.861Z,24.73
2022-08-17T06:00:00.703Z,24.64
2022-08-17T06:02:47.058Z,24.89
2022-08-17T06:05:35.084Z,25.10
2022-08-17T06:08:12.577Z,25.31
2022-08-17T06:10:47.108Z,25.49
2022-08-17T06:13:20.507Z,25.60
2022-08-17T06:15:57.535Z,25.87
2022-08-17T06:18:29.351Z,26.14
2022-08-17T06:20:58.900Z,26.29
2022-08-17T06:23:34.553Z,26.55
2022-08-17T06:26:06.075Z,26.75
2022-08-17T06:28:40.865Z,26.76
2022-08-17T06:31:15.061Z,26.55
2022-08-17T06:33:42.855Z,26.72
2022-08-17T06:36:23.749Z,26.77
2022-08-17T06:39:03.360Z,26.79
2022-08-17T06:41:41.471Z,26.94
2022-08-17T06:44:50.302Z,27.10
2022-08-17T06:47:07.282Z,27.37
2022-08-17T06:49:46.235Z,27.52
2022-08-17T06:52:46.906Z,27.78
2022-08-17T06:55:18.728Z,27.86
2022-08-17T06:57:50.022Z,28.30
2022-08-17T07:00:21.258Z,28.56
2022-08-17T07:02:56.788Z,28.82
2022-08-17T07:05:30.779Z,29.01
2022-08-17T07:08:05.138Z,29.17
2022-08-17T07:10:41.122Z,29.10
2022-08-17T07:13:26.397Z,29.30
2022-08-17T07:16:01.236Z,29.70
2022-08-17T07:18:31.156Z,30.01
2022-08-17T07:21:06.759Z,29.85
2022-08-17T07:23:52.471Z,30.13
2022-08-17T07:26:23.592Z,30.36
2022-08-17T07:28:51.675Z,30.54
2022-08-17T07:31:25.286Z,30.60
2022-08-17T07:34:16.354Z,30.89
2022-08-17T07:37:08.478Z,31.11
2022-08-17T07:39:59.601Z,31.00
2022-08-17T07:42:44.914Z,31.34
2022-08-17T07:45:22.414Z,31.54
2022-08-17T07:47:50.987Z,31.72
2022-08-17T07:50:37.597Z,31.96
2022-08-17T07:53:17.990Z,31.88
2022-08-17T07:55:55.399Z,32.04
2022-08-17T07:58:46.437Z,31.97
2022-08-17T08:01:26.660Z,32.34
2022-08-17T08:04:58.998Z,32.64
2022-08-17T08:07:28.500Z,32.58
2022-08-17T08:10:13.281Z,32.86
2022-08-17T08:13:08.716Z,32.96
2022-08-17T08:15:53.750Z,33.03
2022-08-17T08:18:54.498Z,33.14
2022-08-17T08:21:27.622Z,33.38
2022-08-17T08:24:01.130Z,33.33
2022-08-17T08:26:37.167Z,33.39
2022-08-17T08:29:14.944Z,33.59
2022-08-17T08:31:57.809Z,33.69
2022-08-17T08:34:53.256Z,34.09
2022-08-17T08:37:35.532Z,33.94
2022-08-17T08:40:13.726Z,33.95
2022-08-17T08:42:50.906Z,33.85
2022-08-17T08:45:24.849Z,34.05
2022-08-17T08:48:12.815Z,34.22
2022-08-17T08:51:06.584Z,34.31
2022-08-17T08:53:45.020Z,34.61
2022-08-17T08:56:31.179Z,34.52
2022-08-17T08:59:10.514Z,34.36
2022-08-17T09:01:54.395Z,34.51
2022-08-17T09:05:12.743Z,34.55
2022-08-17T09:07:56.248Z,34.34
2022-08-17T09:10:42.966Z,34.53
2022-08-17T09:13:26.038Z,34.17
2022-08-17T09:16:11.159Z,33.60
2022-08-17T09:19:02.377Z,33.25
2022-08-17T09:21:48.569Z,33.37
2022-08-17T09:24:24.232Z,33.29
2022-08-17T09:26:59.106Z,33.34
2022-08-17T09:29:30.631Z,32.65
2022-08-17T09:32:03.512Z,32.68
2022-08-17T09:34:41.038Z,33.43
2022-08-17T09:37:20.734Z,33.83
2022-08-17T09:39:56.704Z,34.24
2022-08-17T09:42:29.798Z,34.54
2022-08-17T09:45:07.780Z,34.36
2022-08-17T09:47:41.157Z,34.63
2022-08-17T09:50:13.582Z,34.74
2022-08-17T09:52:43.029Z,34.95
2022-08-17T09:55:10.687Z,35.26
2022-08-17T09:57:51.016Z,35.61
2022-08-17T10:00:22.613Z,35.22
2022-08-17T10:03:11.482Z,34.46
2022-08-17T10:05:45.507Z,34.70
2022-08-17T10:08:24.505Z,34.72
2022-08-17T10:11:04.956Z,34.71
2022-08-17T10:13:40.306Z,34.13
2022-08-17T10:16:29.300Z,34.12
2022-08-17T10:19:13.006Z,34.05
2022-08-17T10:21:44.100Z,33.91
2022-08-17T10:24:17.701Z,33.58
2022-08-17T10:26:56.469Z,33.87
2022-08-17T10:29:29.008Z,34.23
2022-08-17T10:32:00.019Z,34.39
2022-08-17T10:34:51.308Z,34.51
2022-08-17T10:37:40.938Z,34.83
2022-08-17T10:40:32.943Z,34.94
2022-08-17T10:43:15.105Z,35.00
2022-08-17T10:45:48.550Z,35.53
2022-08-17T10:48:38.113Z,35.59
2022-08-17T10:51:08.709Z,35.78
2022-08-17T10:53:59.080Z,36.25
2022-08-17T10:56:58.104Z,36.09
2022-08-17T10:59:53.545Z,36.34
2022-08-17T11:02:27.664Z,36.81
2022-08-17T11:05:08.700Z,37.12
2022-08-17T11:08:07.392Z,36.63
2022-08-17T11:10:53.457Z,35.58
2022-08-17T11:13:34.742Z,34.64
2022-08-17T11:16:34.519Z,34.49
2022-08-17T11:19:31.229Z,34.30
2022-08-17T11:22:33.507Z,34.35
2022-08-17T11:25:14.809Z,34.89
2022-08-17T11:27:44.074Z,35.42
2022-08-17T11:30:17.389Z,35.87
2022-08-17T11:32:53.076Z,36.32
2022-08-17T11:35:38.028Z,36.97
2022-08-17T11:38:16.677Z,37.32
2022-08-17T11:41:07.943Z,37.22
2022-08-17T11:44:10.838Z,36.65
2022-08-17T11:46:55.976Z,36.79
2022-08-17T11:49:45.387Z,37.15
2022-08-17T11:52:38.496Z,37.25
2022-08-17T11:55:31.904Z,37.17
2022-08-17T11:57:58.494Z,37.42
2022-08-17T12:00:53.818Z,36.74
2022-08-17T12:03:54.310Z,35.63
2022-08-17T12:06:40.018Z,35.25
2022-08-17T12:09:14.096Z,34.66
2022-08-17T12:11:55.529Z,34.36
2022-08-17T12:15:08.370Z,33.93
2022-08-17T12:17:25.940Z,34.54
2022-08-17T12:20:15.178Z,35.16
2022-08-17T12:22:51.538Z,35.11
2022-08-17T12:25:24.459Z,35.60
2022-08-17T12:28:06.648Z,36.16
2022-08-17T12:30:35.208Z,36.44
2022-08-17T12:33:02.747Z,35.81
2022-08-17T12:35:35.347Z,35.69
2022-08-17T12:38:06.834Z,35.61
2022-08-17T12:40:57.936Z,35.84
2022-08-17T12:43:27.959Z,36.40
2022-08-17T12:45:57.409Z,36.10
2022-08-17T12:48:26.931Z,35.97
2022-08-17T12:51:01.698Z,36.17
2022-08-17T12:53:33.431Z,36.62
2022-08-17T12:56:06.921Z,36.96
2022-08-17T12:58:38.303Z,37.08
2022-08-17T13:01:08.783Z,37.46
2022-08-17T13:03:39.352Z,37.77
2022-08-17T13:06:11.421Z,37.86
2022-08-17T13:08:43.853Z,37.36
2022-08-17T13:11:19.808Z,37.18
2022-08-17T13:13:49.245Z,37.35
2022-08-17T13:16:19.560Z,36.94
2022-08-17T13:18:49.038Z,36.88
2022-08-17T13:21:26.237Z,36.81
2022-08-17T13:23:56.476Z,36.10
2022-08-17T13:26:29.377Z,36.14
2022-08-17T13:28:57.439Z,36.38
2022-08-17T13:31:44.057Z,36.34
2022-08-17T13:34:34.895Z,36.63
2022-08-17T13:37:25.249Z,37.09
2022-08-17T13:39:56.184Z,37.62
2022-08-17T13:42:32.646Z,37.66
2022-08-17T13:45:01.198Z,37.08
2022-08-17T13:47:28.705Z,37.44
2022-08-17T13:49:56.140Z,37.27
2022-08-17T13:52:38.172Z,37.25
2022-08-17T13:55:19.733Z,37.50
2022-08-17T13:57:49.963Z,37.63
2022-08-17T14:00:33.588Z,37.77
2022-08-17T14:03:04.226Z,37.99
2022-08-17T14:05:32.120Z,37.71
2022-08-17T14:08:07.098Z,37.28
2022-08-17T14:10:36.832Z,36.97
2022-08-17T14:13:04.836Z,36.88
2022-08-17T14:15:53.976Z,36.37
2022-08-17T14:18:55.313Z,36.02
2022-08-17T14:21:07.559Z,35.21
2022-08-17T14:23:37.517Z,35.32
2022-08-17T14:26:05.191Z,35.84
2022-08-17T14:28:32.526Z,36.23
2022-08-17T14:31:00.490Z,36.71
2022-08-17T14:33:28.354Z,37.23
2022-08-17T14:35:55.715Z,37.22
2022-08-17T14:38:23.373Z,36.94
2022-08-17T14:40:52.293Z,36.73
2022-08-17T14:43:19.675Z,36.24
2022-08-17T14:45:47.721Z,36.09
2022-08-17T14:48:15.130Z,36.39
2022-08-17T14:50:43.705Z,36.30
2022-08-17T14:53:14.252Z,36.20
2022-08-17T14:55:41.365Z,36.28
2022-08-17T14:58:10.008Z,35.59
2022-08-17T15:00:38.389Z,35.44
2022-08-17T15:03:05.603Z,35.72
2022-08-17T15:05:36.066Z,35.94
2022-08-17T15:08:05.132Z,36.10
2022-08-17T15:10:33.142Z,35.99
2022-08-17T15:13:00.631Z,36.07
2022-08-17T15:15:29.830Z,35.73
2022-08-17T15:17:58.614Z,35.47
2022-08-17T15:20:28.802Z,35.78
2022-08-17T15:22:56.993Z,35.72
2022-08-17T15:25:25.848Z,35.87
2022-08-17T15:27:53.448Z,36.27
2022-08-17T15:30:21.464Z,36.45
2022-08-17T15:32:54.423Z,36.21
2022-08-17T15:35:28.169Z,35.85
2022-08-17T15:37:58.616Z,35.92
2022-08-17T15:40:26.029Z,35.92
2022-08-17T15:42:53.609Z,36.10
2022-08-17T15:45:23.979Z,35.96
2022-08-17T15:47:55.734Z,36.08
2022-08-17T15:50:23.036Z,36.20
2022-08-17T15:52:56.589Z,36.00
2022-08-17T15:55:24.896Z,35.73
2022-08-17T15:57:52.424Z,35.42
2022-08-17T16:00:20.443Z,35.26
2022-08-17T16:03:14.084Z,35.09
2022-08-17T16:05:36.947Z,35.04
2022-08-17T16:08:04.874Z,34.88
2022-08-17T16:10:35.588Z,34.79
2022-08-17T16:13:04.316Z,34.81
2022-08-17T16:15:32.239Z,34.63
2022-08-17T16:18:01.691Z,34.71
2022-08-17T16:20:29.014Z,34.74
2022-08-17T16:22:58.215Z,34.74
2022-08-17T16:25:52.182Z,34.70
2022-08-17T16:28:16.927Z,34.82
2022-08-17T16:31:03.339Z,34.84
2022-08-17T16:33:30.934Z,34.82
2022-08-17T16:35:58.395Z,34.81
2022-08-17T16:38:27.071Z,34.75
2022-08-17T16:40:54.768Z,34.70
2022-08-17T16:43:37.205Z,34.55
2022-08-17T16:46:29.435Z,34.46
2022-08-17T16:49:37.319Z,34.30
2022-08-17T16:52:08.347Z,34.18
2022-08-17T16:54:39.648Z,33.95
2022-08-17T17:01:20.224Z,33.27
2022-08-17T17:08:14.994Z,32.71
2022-08-17T17:11:22.790Z,32.75
2022-08-17T17:17:56.487Z,32.32
2022-08-17T17:20:40.545Z,31.98
2022-08-17T17:23:19.941Z,31.78
2022-08-17T17:26:01.679Z,31.56
2022-08-17T17:28:44.065Z,31.46
2022-08-17T17:31:15.676Z,31.39
2022-08-17T17:33:49.088Z,31.27
2022-08-17T17:36:24.944Z,31.34
2022-08-17T17:39:03.944Z,31.22
2022-08-17T17:41:44.273Z,30.79
2022-08-17T17:44:19.745Z,30.42
2022-08-17T17:47:17.196Z,30.41
2022-08-17T17:54:05.795Z,30.30
2022-08-17T17:57:32.322Z,30.21
2022-08-17T18:00:10.313Z,30.16
2022-08-17T18:02:51.207Z,30.21
2022-08-17T18:05:34.480Z,30.22
2022-08-17T18:08:14.415Z,30.06
2022-08-17T18:10:50.354Z,29.54
2022-08-17T18:13:27.315Z,29.45
2022-08-17T18:15:56.683Z,29.32
2022-08-17T18:18:32.725Z,29.21
2022-08-17T18:21:03.037Z,29.12
2022-08-17T18:23:31.001Z,28.94
2022-08-17T18:25:59.059Z,29.05
2022-08-17T18:28:29.235Z,29.12
2022-08-17T18:31:11.507Z,28.99
2022-08-17T18:33:40.855Z,28.68
2022-08-17T18:36:09.147Z,28.62
2022-08-17T18:38:38.706Z,28.65
2022-08-17T18:41:19.264Z,28.47
2022-08-17T18:44:00.950Z,28.07
2022-08-17T18:46:32.608Z,27.93
2022-08-17T18:49:02.171Z,27.73
2022-08-17T18:51:41.482Z,27.67
2022-08-17T18:54:17.494Z,27.74
2022-08-17T18:56:50.258Z,27.68
2022-08-17T18:59:31.865Z,27.65
2022-08-17T19:02:38.703Z,27.49
2022-08-17T19:05:17.261Z,27.40
2022-08-17T19:07:46.780Z,27.15
2022-08-17T19:10:23.259Z,26.96
2022-08-17T19:12:55.536Z,26.92
2022-08-17T19:15:34.415Z,26.76
2022-08-17T19:18:14.702Z,26.91
2022-08-17T19:20:47.650Z,26.86
2022-08-17T19:23:21.535Z,26.59
2022-08-17T19:25:50.928Z,26.66
2022-08-17T19:28:27.610Z,26.70
2022-08-17T19:30:57.735Z,26.73
2022-08-17T19:33:27.178Z,26.70
2022-08-17T19:36:05.050Z,26.66
2022-08-17T19:38:44.660Z,26.50
2022-08-17T19:41:19.260Z,26.24
2022-08-17T19:43:56.842Z,26.08
2022-08-17T19:46:35.729Z,26.15
2022-08-17T19:49:11.775Z,26.29
2022-08-17T19:51:46.709Z,26.06
2022-08-17T19:54:35.019Z,25.55
2022-08-17T19:57:07.202Z,25.28
2022-08-17T19:59:46.397Z,25.45
2022-08-17T20:02:24.001Z,25.58
2022-08-17T20:04:56.626Z,25.44
2022-08-17T20:07:28.880Z,25.14
2022-08-17T20:10:02.477Z,24.78
2022-08-17T20:12:34.159Z,24.94
2022-08-17T20:15:06.855Z,24.92
2022-08-17T20:17:37.795Z,24.79
2022-08-17T20:20:22.033Z,24.68
2022-08-17T20:22:57.432Z,24.59
2022-08-17T20:25:31.346Z,24.62
2022-08-17T20:28:06.361Z,24.40
2022-08-17T20:30:37.773Z,24.52
2022-08-17T20:33:06.686Z,24.50
2022-08-17T20:35:38.216Z,24.45
2022-08-17T20:38:08.819Z,24.44
2022-08-17T20:40:39.240Z,24.51
2022-08-17T20:43:43.251Z,24.57
2022-08-17T20:46:23.735Z,24.59
2022-08-17T20:48:56.182Z,24.51
2022-08-17T20:51:29.938Z,24.40
2022-08-17T20:54:34.117Z,24.11
2022-08-17T20:57:01.770Z,24.26
2022-08-17T21:00:09.243Z,24.40
2022-08-17T21:02:36.551Z,24.42
2022-08-17T21:05:30.102Z,24.41
2022-08-17T21:08:11.328Z,24.36
2022-08-17T21:10:40.425Z,24.35
2022-08-17T21:13:36.470Z,24.27
2022-08-17T21:16:21.970Z,24.17
2022-08-17T21:18:55.682Z,23.92
2022-08-17T21:21:30.064Z,23.96
2022-08-17T21:24:20.973Z,24.10
2022-08-17T21:26:58.407Z,24.00
2022-08-17T21:29:30.926Z,23.76
2022-08-17T21:32:19.039Z,23.54
2022-08-17T21:35:24.575Z,23.50
2022-08-17T21:37:56.390Z,23.47
2022-08-17T21:40:27.811Z,23.21
2022-08-17T21:42:57.625Z,23.13
2022-08-17T21:45:29.146Z,23.14
2022-08-17T21:48:10.326Z,23.31
2022-08-17T21:50:38.328Z,23.42
2022-08-17T21:53:06.153Z,23.34
2022-08-17T21:55:39.428Z,23.31
2022-08-17T21:58:23.198Z,23.23
2022-08-17T22:01:13.127Z,23.27
2022-08-17T22:03:41.259Z,23.24
2022-08-17T22:06:23.920Z,23.23
2022-08-17T22:09:00.310Z,23.24
2022-08-17T22:11:29.053Z,23.16
2022-08-17T22:14:05.510Z,23.09
2022-08-17T22:16:33.278Z,23.02
2022-08-17T22:19:00.980Z,23.04
2022-08-17T22:21:28.370Z,23.09
2022-08-17T22:24:01.910Z,22.95
2022-08-17T22:27:05.943Z,22.86
2022-08-17T22:29:57.905Z,22.87
2022-08-17T22:32:35.791Z,22.78
2022-08-17T22:35:34.572Z,22.84
2022-08-17T22:38:28.468Z,22.83
2022-08-17T22:41:12.618Z,22.86
2022-08-17T22:43:44.830Z,22.81
2022-08-17T22:46:12.802Z,22.89
2022-08-17T22:48:48.260Z,22.87
2022-08-17T22:51:20.532Z,22.80
2022-08-17T22:53:53.621Z,22.78
2022-08-17T22:56:25.157Z,22.76
2022-08-17T22:58:59.112Z,22.54
2022-08-17T23:01:29.312Z,22.53
2022-08-17T23:03:58.489Z,22.76
2022-08-17T23:06:25.782Z,22.87
2022-08-17T23:08:54.001Z,22.66
2022-08-17T23:11:22.060Z,22.51
2022-08-17T23:14:12.053Z,22.41
2022-08-17T23:16:40.750Z,22.25
2022-08-17T23:19:08.314Z,22.12
2022-08-17T23:21:37.225Z,22.13
2022-08-17T23:24:05.844Z,22.21
2022-08-17T23:26:35.952Z,22.14
2022-08-17T23:29:04.069Z,22.09
2022-08-17T23:31:33.926Z,21.97
2022-08-17T23:34:01.597Z,22.03
2022-08-17T23:36:29.287Z,21.94
2022-08-17T23:38:56.492Z,21.39
2022-08-17T23:41:24.256Z,21.50
2022-08-17T23:43:53.108Z,21.43
2022-08-17T23:46:20.351Z,21.60
2022-08-17T23:48:48.946Z,21.61
2022-08-17T23:51:21.107Z,21.66
2022-08-17T23:53:53.553Z,21.40
2022-08-17T23:56:21.619Z,21.48
2022-08-17T23:58:51.399Z,21.70
